createdAt,value
2018-12-27T00:00:33.007Z,78.35
2018-12-27T00:03:01.335Z,73.35
2018-12-27T00:05:29.624Z,80.07
2018-12-27T00:07:57.911Z,77.67
2018-12-27T00:10:26.238Z,82.57
2018-12-27T00:12:54.468Z,74.58
2018-12-27T00:15:22.675Z,75.80
2018-12-27T00:17:50.967Z,66.97
2018-12-27T00:20:19.345Z,63.63
2018-12-27T00:22:47.704Z,66.07
2018-12-27T00:25:16.248Z,58.80
2018-12-27T00:27:44.636Z,58.30
2018-12-27T00:30:13.055Z,57.40
2018-12-27T00:32:41.498Z,56.60
2018-12-27T00:35:09.895Z,56.28
2018-12-27T00:37:38.291Z,57.23
2018-12-27T00:40:06.911Z,57.17
2018-12-27T00:42:35.207Z,51.70
2018-12-27T00:45:03.712Z,48.60
2018-12-27T00:47:32.154Z,52.58
2018-12-27T00:50:00.461Z,55.30
2018-12-27T00:52:28.868Z,57.53
2018-12-27T00:54:57.247Z,51.83
2018-12-27T00:57:25.692Z,45.95
2018-12-27T00:59:53.989Z,52.55
2018-12-27T01:02:22.283Z,43.80
2018-12-27T01:04:50.590Z,43.30
2018-12-27T01:07:18.878Z,45.80
2018-12-27T01:09:47.175Z,41.73
2018-12-27T01:12:15.454Z,39.83
2018-12-27T01:14:43.753Z,40.88
2018-12-27T01:17:12.057Z,44.50
2018-12-27T01:19:40.367Z,38.73
2018-12-27T01:22:08.680Z,36.95
2018-12-27T01:24:36.962Z,39.40
2018-12-27T01:27:05.246Z,37.35
2018-12-27T01:29:33.542Z,37.93
2018-12-27T01:32:01.851Z,38.95
2018-12-27T01:34:30.176Z,38.98
2018-12-27T01:36:58.455Z,38.00
2018-12-27T01:39:26.739Z,32.95
2018-12-27T01:41:55.095Z,38.95
2018-12-27T01:44:23.425Z,34.35
2018-12-27T01:46:51.768Z,35.28
2018-12-27T01:49:20.051Z,37.50
2018-12-27T01:51:48.338Z,34.65
2018-12-27T01:54:16.635Z,41.55
2018-12-27T01:56:44.919Z,33.88
2018-12-27T01:59:13.210Z,37.28
2018-12-27T02:01:41.527Z,40.67
2018-12-27T02:04:09.818Z,35.55
2018-12-27T02:06:38.098Z,35.95
2018-12-27T02:09:06.383Z,38.28
2018-12-27T02:11:34.687Z,34.10
2018-12-27T02:14:02.996Z,35.70
2018-12-27T02:16:31.297Z,41.30
2018-12-27T02:18:59.583Z,39.27
2018-12-27T02:21:27.868Z,40.58
2018-12-27T02:23:56.155Z,35.80
2018-12-27T02:26:24.451Z,39.65
2018-12-27T02:28:52.744Z,42.60
2018-12-27T02:31:21.039Z,37.80
2018-12-27T02:33:49.323Z,36.77
2018-12-27T02:36:17.615Z,36.55
2018-12-27T02:38:45.895Z,41.55
2018-12-27T02:41:14.200Z,39.27
2018-12-27T02:43:42.503Z,36.68
2018-12-27T02:46:10.806Z,37.60
2018-12-27T02:48:39.235Z,39.45
2018-12-27T02:51:07.516Z,40.05
2018-12-27T02:53:35.936Z,41.10
2018-12-27T02:56:04.281Z,35.08
2018-12-27T02:58:32.571Z,37.38
2018-12-27T03:01:00.896Z,40.10
2018-12-27T03:03:29.196Z,39.40
2018-12-27T03:05:57.507Z,34.33
2018-12-27T03:08:25.790Z,34.98
2018-12-27T03:10:54.078Z,33.73
2018-12-27T03:13:22.373Z,34.05
2018-12-27T03:15:50.680Z,34.70
2018-12-27T03:18:19.005Z,32.57
2018-12-27T03:20:47.347Z,32.65
2018-12-27T03:23:15.670Z,34.35
2018-12-27T03:25:44.052Z,34.50
2018-12-27T03:28:12.439Z,31.93
2018-12-27T03:30:40.728Z,30.02
2018-12-27T03:33:09.040Z,34.92
2018-12-27T03:35:37.427Z,31.77
2018-12-27T03:38:05.743Z,30.90
2018-12-27T03:40:34.018Z,31.35
2018-12-27T03:43:02.324Z,31.87
2018-12-27T03:45:30.627Z,28.17
2018-12-27T03:47:58.909Z,29.57
2018-12-27T03:50:27.372Z,38.70
2018-12-27T03:52:55.676Z,35.92
2018-12-27T03:55:24.023Z,32.13
2018-12-27T03:57:52.349Z,27.47
2018-12-27T04:00:20.641Z,27.62
2018-12-27T04:02:48.957Z,28.87
2018-12-27T04:05:17.257Z,28.50
2018-12-27T04:07:45.561Z,29.48
2018-12-27T04:10:13.851Z,27.10
2018-12-27T04:12:42.155Z,22.73
2018-12-27T04:15:10.363Z,29.42
2018-12-27T04:17:38.583Z,27.65
2018-12-27T04:20:06.798Z,28.67
2018-12-27T04:22:35.023Z,25.23
2018-12-27T04:25:03.503Z,29.35
2018-12-27T04:27:31.723Z,26.70
2018-12-27T04:29:59.931Z,28.62
2018-12-27T04:32:28.234Z,25.83
2018-12-27T04:34:56.535Z,24.55
2018-12-27T04:37:24.763Z,27.43
2018-12-27T04:39:52.990Z,27.20
2018-12-27T04:42:21.609Z,22.65
2018-12-27T04:44:49.853Z,28.02
2018-12-27T04:47:18.115Z,25.03
2018-12-27T04:49:46.334Z,25.48
2018-12-27T04:52:14.550Z,24.50
2018-12-27T04:54:42.762Z,25.50
2018-12-27T04:57:10.994Z,24.43
2018-12-27T04:59:39.225Z,23.73
2018-12-27T05:02:07.465Z,26.27
2018-12-27T05:04:35.680Z,23.73
2018-12-27T05:07:03.911Z,24.70
2018-12-27T05:09:32.139Z,22.62
2018-12-27T05:12:00.353Z,25.63
2018-12-27T05:14:28.608Z,23.57
2018-12-27T05:16:56.839Z,24.25
2018-12-27T05:19:25.051Z,25.75
2018-12-27T05:21:53.268Z,22.60
2018-12-27T05:24:21.478Z,23.87
2018-12-27T05:26:49.688Z,22.32
2018-12-27T05:29:19.083Z,25.15
2018-12-27T05:31:47.286Z,23.05
2018-12-27T05:34:15.534Z,24.17
2018-12-27T05:36:43.753Z,21.87
2018-12-27T05:39:11.983Z,22.40
2018-12-27T05:41:40.195Z,21.37
2018-12-27T05:44:08.504Z,21.17
2018-12-27T05:46:36.702Z,21.73
2018-12-27T05:49:04.932Z,24.25
2018-12-27T05:51:33.138Z,25.15
2018-12-27T05:54:01.360Z,23.80
2018-12-27T05:56:29.571Z,23.43
2018-12-27T05:58:57.802Z,22.35
2018-12-27T06:01:26.037Z,22.80
2018-12-27T06:03:54.260Z,26.20
2018-12-27T06:06:22.461Z,22.97
2018-12-27T06:08:50.688Z,24.15
2018-12-27T06:11:18.893Z,22.10
2018-12-27T06:13:47.129Z,23.27
2018-12-27T06:16:15.763Z,24.00
2018-12-27T06:18:43.987Z,29.43
2018-12-27T06:21:12.198Z,23.07
2018-12-27T06:23:40.412Z,22.20
2018-12-27T06:26:08.626Z,22.70
2018-12-27T06:28:36.849Z,23.40
2018-12-27T06:31:05.063Z,20.00
2018-12-27T06:33:33.280Z,23.65
2018-12-27T06:36:01.495Z,19.97
2018-12-27T06:38:29.735Z,21.57
2018-12-27T06:40:57.987Z,21.02
2018-12-27T06:43:26.248Z,24.02
2018-12-27T06:45:54.467Z,24.33
2018-12-27T06:48:22.691Z,23.90
2018-12-27T06:50:50.920Z,20.12
2018-12-27T06:53:19.128Z,22.85
2018-12-27T06:55:47.345Z,20.10
2018-12-27T06:58:15.557Z,24.80
2018-12-27T07:00:43.790Z,24.10
2018-12-27T07:03:12.007Z,23.18
2018-12-27T07:05:40.227Z,24.50
2018-12-27T07:08:08.442Z,27.77
2018-12-27T07:10:36.742Z,21.97
2018-12-27T07:13:05.234Z,21.27
2018-12-27T07:15:33.467Z,24.50
2018-12-27T07:18:01.690Z,21.73
2018-12-27T07:20:29.975Z,20.77
2018-12-27T07:22:58.179Z,23.40
2018-12-27T07:25:26.408Z,20.43
2018-12-27T07:27:54.635Z,20.82
2018-12-27T07:30:22.844Z,22.90
2018-12-27T07:32:51.065Z,19.30
2018-12-27T07:35:19.275Z,21.35
2018-12-27T07:37:47.503Z,18.82
2018-12-27T07:40:15.730Z,20.47
2018-12-27T07:42:43.950Z,21.80
2018-12-27T07:45:12.171Z,23.17
2018-12-27T07:47:40.382Z,21.45
2018-12-27T07:50:08.591Z,19.80
2018-12-27T07:52:36.820Z,25.00
2018-12-27T07:55:05.144Z,25.17
2018-12-27T07:57:33.367Z,22.15
2018-12-27T08:00:02.671Z,21.15
2018-12-27T08:02:30.897Z,22.30
2018-12-27T08:05:03.848Z,23.13
2018-12-27T08:07:29.019Z,24.40
2018-12-27T08:09:57.247Z,23.02
2018-12-27T08:12:25.480Z,26.63
2018-12-27T08:14:53.700Z,24.70
2018-12-27T08:17:21.926Z,22.73
2018-12-27T08:19:50.142Z,22.93
2018-12-27T08:22:18.414Z,22.93
2018-12-27T08:24:46.623Z,25.13
2018-12-27T08:27:14.843Z,24.73
2018-12-27T08:29:43.103Z,21.33
2018-12-27T08:32:11.367Z,19.20
2018-12-27T08:34:39.655Z,23.70
2018-12-27T08:37:07.894Z,21.73
2018-12-27T08:39:36.107Z,19.37
2018-12-27T08:42:04.331Z,23.93
2018-12-27T08:44:32.555Z,21.67
2018-12-27T08:47:00.781Z,24.00
2018-12-27T08:49:28.987Z,20.48
2018-12-27T08:51:57.264Z,23.27
2018-12-27T08:54:27.129Z,20.10
2018-12-27T08:56:56.623Z,22.00
2018-12-27T08:59:24.829Z,22.43
2018-12-27T09:01:53.047Z,16.83
2018-12-27T09:04:21.247Z,22.73
2018-12-27T09:06:49.486Z,22.27
2018-12-27T09:09:17.704Z,24.60
2018-12-27T09:11:45.920Z,21.17
2018-12-27T09:14:14.132Z,19.53
2018-12-27T09:16:42.371Z,18.10
2018-12-27T09:19:10.609Z,18.83
2018-12-27T09:21:38.857Z,21.87
2018-12-27T09:24:07.050Z,17.67
2018-12-27T09:26:35.272Z,23.50
2018-12-27T09:29:03.631Z,19.70
2018-12-27T09:31:31.958Z,20.47
2018-12-27T09:34:00.172Z,17.45
2018-12-27T09:36:28.395Z,18.17
2018-12-27T09:38:56.651Z,20.07
2018-12-27T09:41:24.863Z,21.63
2018-12-27T09:43:53.094Z,19.43
2018-12-27T09:48:08.223Z,20.27
2018-12-27T09:50:37.709Z,21.20
2018-12-27T09:53:07.220Z,20.20
2018-12-27T09:55:36.711Z,20.70
2018-12-27T09:58:06.205Z,22.50
2018-12-27T10:00:35.690Z,20.57
2018-12-27T10:03:05.173Z,18.60
2018-12-27T10:05:34.685Z,18.50
2018-12-27T10:08:04.155Z,19.55
2018-12-27T10:10:33.655Z,22.00
2018-12-27T10:13:03.166Z,19.77
2018-12-27T10:15:32.660Z,19.20
2018-12-27T10:18:02.151Z,27.13
2018-12-27T10:20:31.642Z,22.10
2018-12-27T10:23:01.146Z,25.47
2018-12-27T10:25:30.661Z,23.43
2018-12-27T10:28:00.173Z,70.93
2018-12-27T10:30:29.673Z,41.28
2018-12-27T10:32:59.190Z,25.10
2018-12-27T10:35:28.694Z,24.57
2018-12-27T10:37:58.194Z,30.87
2018-12-27T10:40:27.707Z,21.90
2018-12-27T10:42:57.210Z,23.67
2018-12-27T10:45:26.739Z,33.75
2018-12-27T10:47:56.263Z,93.65
2018-12-27T10:50:25.761Z,23.87
2018-12-27T10:52:55.254Z,19.62
2018-12-27T10:55:24.767Z,21.27
2018-12-27T10:57:54.263Z,23.07
2018-12-27T11:00:23.761Z,20.82
2018-12-27T11:02:53.255Z,23.70
2018-12-27T11:05:22.750Z,23.12
2018-12-27T11:07:52.231Z,22.15
2018-12-27T11:10:21.727Z,20.37
2018-12-27T11:12:51.247Z,22.05
2018-12-27T11:15:20.746Z,20.32
2018-12-27T11:17:50.241Z,23.67
2018-12-27T11:20:19.758Z,22.80
2018-12-27T11:22:49.236Z,17.50
2018-12-27T11:25:18.821Z,23.43
2018-12-27T11:27:48.276Z,18.27
2018-12-27T11:30:17.788Z,20.70
2018-12-27T11:32:47.261Z,21.40
2018-12-27T11:35:16.759Z,18.50
2018-12-27T11:37:46.263Z,22.60
2018-12-27T11:40:15.761Z,21.93
2018-12-27T11:42:45.240Z,18.27
2018-12-27T11:45:14.740Z,22.02
2018-12-27T11:47:44.249Z,18.73
2018-12-27T11:50:13.827Z,19.60
2018-12-27T11:52:43.303Z,18.83
2018-12-27T11:55:13.856Z,19.00
2018-12-27T11:57:43.337Z,20.00
2018-12-27T12:00:12.826Z,20.10
2018-12-27T12:02:42.319Z,22.30
2018-12-27T12:05:11.841Z,19.87
2018-12-27T12:07:41.316Z,24.60
2018-12-27T12:10:10.825Z,20.80
2018-12-27T12:12:40.314Z,18.45
2018-12-27T12:15:09.837Z,20.37
2018-12-27T12:17:40.111Z,21.35
2018-12-27T12:20:09.611Z,24.85
2018-12-27T12:22:39.078Z,24.83
2018-12-27T12:25:08.580Z,26.27
2018-12-27T12:27:38.055Z,25.13
2018-12-27T12:30:08.628Z,26.30
2018-12-27T12:32:38.108Z,28.25
2018-12-27T12:35:07.588Z,26.45
2018-12-27T12:37:37.168Z,22.37
2018-12-27T12:40:07.371Z,24.87
2018-12-27T12:42:36.894Z,21.10
2018-12-27T12:45:07.056Z,22.77
2018-12-27T12:47:36.545Z,24.55
2018-12-27T12:50:07.128Z,21.90
2018-12-27T12:52:36.643Z,18.57
2018-12-27T12:55:06.176Z,21.53
2018-12-27T12:57:35.667Z,20.10
2018-12-27T13:00:07.399Z,20.05
2018-12-27T13:02:36.885Z,18.13
2018-12-27T13:05:06.445Z,18.40
2018-12-27T13:07:35.970Z,17.90
2018-12-27T13:10:05.689Z,16.65
2018-12-27T13:12:35.194Z,15.67
2018-12-27T13:15:05.039Z,16.97
2018-12-27T13:17:34.535Z,15.80
2018-12-27T13:20:04.224Z,16.80
2018-12-27T13:22:33.719Z,16.30
2018-12-27T13:25:03.219Z,15.33
2018-12-27T13:27:32.730Z,13.93
2018-12-27T13:30:02.209Z,16.47
2018-12-27T13:32:31.709Z,16.63
2018-12-27T13:35:01.207Z,19.43
2018-12-27T13:37:30.713Z,16.20
2018-12-27T13:40:00.195Z,16.15
2018-12-27T13:42:29.720Z,19.40
2018-12-27T13:45:00.269Z,15.48
2018-12-27T13:47:29.775Z,14.40
2018-12-27T13:49:59.232Z,17.87
2018-12-27T13:52:28.778Z,19.57
2018-12-27T13:54:58.304Z,15.83
2018-12-27T13:57:27.815Z,14.73
2018-12-27T13:59:57.307Z,17.82
2018-12-27T14:02:26.842Z,16.33
2018-12-27T14:04:56.342Z,18.43
2018-12-27T14:07:26.821Z,18.40
2018-12-27T14:09:56.368Z,16.75
2018-12-27T14:12:25.872Z,18.10
2018-12-27T14:14:55.365Z,17.30
2018-12-27T14:17:24.935Z,15.40
2018-12-27T14:19:54.451Z,15.17
2018-12-27T14:22:24.040Z,15.57
2018-12-27T14:24:57.902Z,19.15
2018-12-27T14:27:24.773Z,26.50
2018-12-27T14:29:54.283Z,21.43
2018-12-27T14:32:24.378Z,18.53
2018-12-27T14:34:53.843Z,18.07
2018-12-27T14:37:23.359Z,20.85
2018-12-27T14:39:52.888Z,19.02
2018-12-27T14:42:22.415Z,19.20
2018-12-27T14:44:51.929Z,18.55
2018-12-27T14:47:21.467Z,17.85
2018-12-27T14:49:50.974Z,17.23
2018-12-27T14:52:20.487Z,17.37
2018-12-27T14:54:49.986Z,17.77
2018-12-27T14:57:19.784Z,18.70
2018-12-27T14:59:49.316Z,18.77
2018-12-27T15:02:18.827Z,17.92
2018-12-27T15:04:48.328Z,22.87
2018-12-27T15:07:17.844Z,14.40
2018-12-27T15:09:47.359Z,16.40
2018-12-27T15:12:16.854Z,17.80
2018-12-27T15:14:46.366Z,19.17
2018-12-27T15:17:15.866Z,17.23
2018-12-27T15:19:45.400Z,15.08
2018-12-27T15:22:14.906Z,16.93
2018-12-27T15:24:44.412Z,21.30
2018-12-27T15:27:13.932Z,26.12
2018-12-27T15:29:43.446Z,29.15
2018-12-27T15:32:13.007Z,22.07
2018-12-27T15:34:42.557Z,23.50
2018-12-27T15:37:12.101Z,22.13
2018-12-27T15:39:41.638Z,20.90
2018-12-27T15:42:11.610Z,24.92
2018-12-27T15:44:41.210Z,18.27
2018-12-27T15:47:12.223Z,16.52
2018-12-27T15:49:42.247Z,15.83
2018-12-27T15:52:12.093Z,16.95
2018-12-27T15:54:41.800Z,14.28
2018-12-27T15:57:11.791Z,15.95
2018-12-27T15:59:41.832Z,15.53
2018-12-27T16:02:11.606Z,16.33
2018-12-27T16:04:41.465Z,17.27
2018-12-27T16:07:10.974Z,19.96
2018-12-27T16:09:40.491Z,16.25
2018-12-27T16:12:09.997Z,20.62
2018-12-27T16:14:39.899Z,18.60
2018-12-27T16:17:09.583Z,19.73
2018-12-27T16:19:39.089Z,19.17
2018-12-27T16:22:08.571Z,23.80
2018-12-27T16:24:38.071Z,14.30
2018-12-27T16:27:08.494Z,16.77
2018-12-27T16:29:38.065Z,16.23
2018-12-27T16:32:07.618Z,15.10
2018-12-27T16:34:37.113Z,16.27
2018-12-27T16:37:09.115Z,20.43
2018-12-27T16:39:37.924Z,19.02
2018-12-27T16:42:07.487Z,12.80
2018-12-27T16:44:36.998Z,14.75
2018-12-27T16:47:06.479Z,16.48
2018-12-27T16:49:35.976Z,14.30
2018-12-27T16:52:05.472Z,12.55
2018-12-27T16:54:35.010Z,15.18
2018-12-27T16:57:04.537Z,13.40
2018-12-27T16:59:34.057Z,12.35
2018-12-27T17:02:03.584Z,12.37
2018-12-27T17:04:33.092Z,12.65
2018-12-27T17:07:02.606Z,13.10
2018-12-27T17:09:32.108Z,13.70
2018-12-27T17:12:01.626Z,15.85
2018-12-27T17:14:31.135Z,12.47
2018-12-27T17:17:00.639Z,14.07
2018-12-27T17:19:30.144Z,12.40
2018-12-27T17:21:59.647Z,25.90
2018-12-27T17:24:29.137Z,35.10
2018-12-27T17:26:58.631Z,21.67
2018-12-27T17:29:28.138Z,17.83
2018-12-27T17:31:57.657Z,14.80
2018-12-27T17:34:27.422Z,15.90
2018-12-27T17:36:56.901Z,13.30
2018-12-27T17:39:26.386Z,14.05
2018-12-27T17:41:55.895Z,12.63
2018-12-27T17:44:25.412Z,12.60
2018-12-27T17:46:54.911Z,16.60
2018-12-27T17:49:24.422Z,14.33
2018-12-27T17:51:53.923Z,16.10
2018-12-27T17:54:23.426Z,13.80
2018-12-27T17:56:52.937Z,10.63
2018-12-27T17:59:22.431Z,15.50
2018-12-27T18:01:51.947Z,16.50
2018-12-27T18:04:21.465Z,15.77
2018-12-27T18:06:51.567Z,13.53
2018-12-27T18:09:21.095Z,12.90
2018-12-27T18:11:50.575Z,14.90
2018-12-27T18:14:20.062Z,19.53
2018-12-27T18:16:49.604Z,13.23
2018-12-27T18:19:19.086Z,11.10
2018-12-27T18:21:48.595Z,12.75
2018-12-27T18:24:18.111Z,14.20
2018-12-27T18:26:47.630Z,13.17
2018-12-27T18:29:17.141Z,14.73
2018-12-27T18:31:46.661Z,15.27
2018-12-27T18:34:16.173Z,25.95
2018-12-27T18:36:45.707Z,17.62
2018-12-27T18:39:15.236Z,15.17
2018-12-27T18:41:44.766Z,17.83
2018-12-27T18:44:14.305Z,16.17
2018-12-27T18:46:43.844Z,15.13
2018-12-27T18:49:13.346Z,21.35
2018-12-27T18:51:42.849Z,17.43
2018-12-27T18:54:12.352Z,15.13
2018-12-27T18:56:41.871Z,14.40
2018-12-27T18:59:11.360Z,14.80
2018-12-27T19:01:40.911Z,13.35
2018-12-27T19:04:10.895Z,15.43
2018-12-27T19:06:40.432Z,16.40
2018-12-27T19:09:09.923Z,14.65
2018-12-27T19:12:15.671Z,16.60
2018-12-27T19:14:45.308Z,14.47
2018-12-27T19:17:22.678Z,13.27
2018-12-27T19:19:52.179Z,16.90
2018-12-27T19:22:36.041Z,14.78
2018-12-27T19:25:05.768Z,13.23
2018-12-27T19:27:35.272Z,14.10
2018-12-27T19:30:04.948Z,15.05
2018-12-27T19:32:35.471Z,17.30
2018-12-27T19:35:05.107Z,17.10
2018-12-27T19:37:35.655Z,14.73
2018-12-27T19:40:05.565Z,13.28
2018-12-27T19:42:36.148Z,16.05
2018-12-27T19:45:05.846Z,15.28
2018-12-27T19:47:35.375Z,15.45
2018-12-27T19:50:05.381Z,15.28
2018-12-27T19:52:34.893Z,15.37
2018-12-27T19:55:04.505Z,14.60
2018-12-27T19:57:34.004Z,13.97
2018-12-27T20:00:03.591Z,16.33
2018-12-27T20:02:34.064Z,19.30
2018-12-27T20:05:03.739Z,15.23
2018-12-27T20:07:33.276Z,17.10
2018-12-27T20:10:02.800Z,15.68
2018-12-27T20:12:32.380Z,18.92
2018-12-27T20:15:01.885Z,15.23
2018-12-27T20:17:31.397Z,17.37
2018-12-27T20:20:00.894Z,18.47
2018-12-27T20:22:31.459Z,17.25
2018-12-27T20:25:00.961Z,15.08
2018-12-27T20:27:30.491Z,15.08
2018-12-27T20:30:00.006Z,16.12
2018-12-27T20:32:29.510Z,19.67
2018-12-27T20:35:00.091Z,18.06
2018-12-27T20:37:29.576Z,15.60
2018-12-27T20:39:59.096Z,19.37
2018-12-27T20:42:29.570Z,15.80
2018-12-27T20:45:00.204Z,16.20
2018-12-27T20:47:29.667Z,14.25
2018-12-27T20:49:59.186Z,15.00
2018-12-27T20:52:28.697Z,16.00
2018-12-27T20:54:59.469Z,17.70
2018-12-27T20:57:28.949Z,15.30
2018-12-27T20:59:58.398Z,19.10
2018-12-27T21:02:27.896Z,16.60
2018-12-27T21:04:57.405Z,19.17
2018-12-27T21:07:26.901Z,15.72
2018-12-27T21:09:57.375Z,14.30
2018-12-27T21:12:26.891Z,13.97
2018-12-27T21:14:56.390Z,15.35
2018-12-27T21:17:25.898Z,14.78
2018-12-27T21:19:55.401Z,14.55
2018-12-27T21:22:24.904Z,16.62
2018-12-27T21:24:54.413Z,18.07
2018-12-27T21:27:23.927Z,16.82
2018-12-27T21:29:53.437Z,15.20
2018-12-27T21:32:22.955Z,16.82
2018-12-27T21:34:52.474Z,14.68
2018-12-27T21:37:21.977Z,17.82
2018-12-27T21:39:51.488Z,13.88
2018-12-27T21:42:21.006Z,15.00
2018-12-27T21:44:50.525Z,15.95
2018-12-27T21:47:20.033Z,15.70
2018-12-27T21:49:49.555Z,15.30
2018-12-27T21:52:19.053Z,15.23
2018-12-27T21:54:48.632Z,14.90
2018-12-27T21:57:18.178Z,17.30
2018-12-27T21:59:47.729Z,12.70
2018-12-27T22:02:17.256Z,12.73
2018-12-27T22:04:46.773Z,15.53
2018-12-27T22:07:16.299Z,15.20
2018-12-27T22:09:45.850Z,13.48
2018-12-27T22:12:15.357Z,14.68
2018-12-27T22:14:44.911Z,13.37
2018-12-27T22:17:14.520Z,14.77
2018-12-27T22:19:44.101Z,13.60
2018-12-27T22:22:13.613Z,14.93
2018-12-27T22:24:43.135Z,17.77
2018-12-27T22:27:12.683Z,14.60
2018-12-27T22:29:42.197Z,13.33
2018-12-27T22:32:11.731Z,13.70
2018-12-27T22:34:41.249Z,15.57
2018-12-27T22:37:10.771Z,16.15
2018-12-27T22:39:40.283Z,16.27
2018-12-27T22:42:09.813Z,15.33
2018-12-27T22:44:39.332Z,14.67
2018-12-27T22:47:08.835Z,14.60
2018-12-27T22:49:38.345Z,14.47
2018-12-27T22:52:07.846Z,14.18
2018-12-27T22:54:37.359Z,13.10
2018-12-27T22:57:06.867Z,12.50
2018-12-27T22:59:36.385Z,14.40
2018-12-27T23:02:05.880Z,12.85
2018-12-27T23:04:35.433Z,15.53
2018-12-27T23:07:04.939Z,14.60
2018-12-27T23:09:34.475Z,13.78
2018-12-27T23:12:03.992Z,15.48
2018-12-27T23:14:33.517Z,17.82
2018-12-27T23:17:03.018Z,16.25
2018-12-27T23:19:32.500Z,16.37
2018-12-27T23:22:02.017Z,14.43
2018-12-27T23:24:31.640Z,15.10
2018-12-27T23:27:01.199Z,14.68
2018-12-27T23:29:30.752Z,17.48
2018-12-27T23:32:00.314Z,13.88
2018-12-27T23:34:29.848Z,15.40
2018-12-27T23:36:59.341Z,14.65
2018-12-27T23:39:28.857Z,15.08
2018-12-27T23:41:58.460Z,15.60
2018-12-27T23:44:27.989Z,14.75
2018-12-27T23:46:57.508Z,14.40
2018-12-27T23:49:26.987Z,14.93
2018-12-27T23:51:56.670Z,16.27
2018-12-27T23:54:26.158Z,14.80
2018-12-27T23:56:55.659Z,18.55
2018-12-27T23:59:25.163Z,16.05
